createdAt,value
2022-11-19T00:01:52.632Z,93941.59
2022-11-19T00:04:18.893Z,93935.47
2022-11-19T00:06:45.145Z,93935.63
2022-11-19T00:09:11.380Z,93939.34
2022-11-19T00:11:37.629Z,93939.63
2022-11-19T00:14:03.877Z,93934.28
2022-11-19T00:16:30.117Z,93935.09
2022-11-19T00:18:56.406Z,93936.44
2022-11-19T00:21:22.657Z,93941.25
2022-11-19T00:23:48.887Z,93937.94
2022-11-19T00:26:15.114Z,93934.31
2022-11-19T00:28:41.370Z,93935.66
2022-11-19T00:31:07.617Z,93942.63
2022-11-19T00:33:33.866Z,93937.88
2022-11-19T00:36:00.117Z,93937.94
2022-11-19T00:38:26.344Z,93951.09
2022-11-19T00:40:52.580Z,93945.53
2022-11-19T00:43:18.830Z,93944.34
2022-11-19T00:45:45.080Z,93947.78
2022-11-19T00:48:11.312Z,93951.03
2022-11-19T00:50:37.530Z,93945.56
2022-11-19T00:53:03.765Z,93949.81
2022-11-19T00:55:30.176Z,93952.69
2022-11-19T00:57:56.396Z,93943.41
2022-11-19T01:00:22.622Z,93947.72
2022-11-19T01:02:48.846Z,93943.50
2022-11-19T01:05:15.077Z,93952.16
2022-11-19T01:07:41.329Z,93952.53
2022-11-19T01:10:07.626Z,93952.69
2022-11-19T01:12:33.854Z,93951.44
2022-11-19T01:15:00.099Z,93956.03
2022-11-19T01:17:26.341Z,93956.03
2022-11-19T01:19:52.606Z,93963.09
2022-11-19T01:22:18.867Z,93951.13
2022-11-19T01:24:45.108Z,93963.09
2022-11-19T01:27:11.355Z,93960.09
2022-11-19T01:29:37.657Z,93958.91
2022-11-19T01:32:03.962Z,93954.38
2022-11-19T01:34:30.189Z,93952.75
2022-11-19T01:36:56.408Z,93960.81
2022-11-19T01:39:22.649Z,93968.66
2022-11-19T01:41:48.917Z,93963.25
2022-11-19T01:44:15.148Z,93964.88
2022-11-19T01:46:41.388Z,93969.13
2022-11-19T01:49:07.611Z,93971.09
2022-11-19T01:51:33.903Z,93964.88
2022-11-19T01:54:00.156Z,93965.22
2022-11-19T01:56:26.384Z,93970.47
2022-11-19T01:58:52.666Z,93976.19
2022-11-19T02:01:18.936Z,93971.38
2022-11-19T02:03:45.168Z,93961.53
2022-11-19T02:06:11.426Z,93959.81
2022-11-19T02:08:37.669Z,93965.84
2022-11-19T02:11:03.898Z,93955.03
2022-11-19T02:13:30.125Z,93965.53
2022-11-19T02:15:56.354Z,93966.84
2022-11-19T02:18:22.621Z,93953.56
2022-11-19T02:20:48.865Z,93952.59
2022-11-19T02:23:15.128Z,93948.44
2022-11-19T02:25:41.369Z,93947.44
2022-11-19T02:28:07.617Z,93946.63
2022-11-19T02:30:33.876Z,93958.22
2022-11-19T02:33:00.115Z,93947.09
2022-11-19T02:35:26.351Z,93949.53
2022-11-19T02:37:52.599Z,93954.41
2022-11-19T02:40:18.826Z,93945.81
2022-11-19T02:42:45.053Z,93944.56
2022-11-19T02:45:11.304Z,93942.75
2022-11-19T02:47:37.589Z,93942.56
2022-11-19T02:50:03.846Z,93940.78
2022-11-19T02:52:30.170Z,93948.19
2022-11-19T02:54:56.399Z,93943.75
2022-11-19T02:57:22.646Z,93942.56
2022-11-19T02:59:48.912Z,93945.63
2022-11-19T03:02:15.161Z,93938.88
2022-11-19T03:04:41.410Z,93931.72
2022-11-19T03:07:07.670Z,93938.97
2022-11-19T03:09:33.943Z,93933.63
2022-11-19T03:12:00.207Z,93931.00
2022-11-19T03:14:26.441Z,93930.56
2022-11-19T03:16:52.693Z,93930.09
2022-11-19T03:19:19.122Z,93922.59
2022-11-19T03:21:45.569Z,93919.16
2022-11-19T03:24:11.805Z,93921.34
2022-11-19T03:26:38.054Z,93920.44
2022-11-19T03:29:04.289Z,93927.63
2022-11-19T03:31:30.537Z,93919.94
2022-11-19T03:33:56.783Z,93916.06
2022-11-19T03:36:23.057Z,93926.53
2022-11-19T03:38:49.288Z,93925.25
2022-11-19T03:41:15.536Z,93926.72
2022-11-19T03:43:41.766Z,93924.25
2022-11-19T03:46:08.013Z,93928.16
2022-11-19T03:48:34.254Z,93925.56
2022-11-19T03:51:00.538Z,93931.91
2022-11-19T03:53:26.782Z,93935.59
2022-11-19T03:55:53.016Z,93932.44
2022-11-19T03:58:19.246Z,93916.38
2022-11-19T04:00:45.575Z,93926.50
2022-11-19T04:03:11.863Z,93928.66
2022-11-19T04:05:38.127Z,93923.22
2022-11-19T04:08:04.378Z,93923.69
2022-11-19T04:10:30.609Z,93926.31
2022-11-19T04:12:56.855Z,93922.72
2022-11-19T04:15:23.112Z,93927.75
2022-11-19T04:17:49.373Z,93922.81
2022-11-19T04:20:15.619Z,93928.84
2022-11-19T04:22:41.892Z,93923.63
2022-11-19T04:25:08.128Z,93923.25
2022-11-19T04:27:34.399Z,93918.00
2022-11-19T04:30:00.647Z,93927.31
2022-11-19T04:32:26.885Z,93927.50
2022-11-19T04:34:53.172Z,93925.06
2022-11-19T04:37:19.417Z,93924.88
2022-11-19T04:39:45.656Z,93926.25
2022-11-19T04:42:11.887Z,93930.81
2022-11-19T04:44:38.109Z,93936.44
2022-11-19T04:47:04.353Z,93935.25
2022-11-19T04:49:30.585Z,93933.19
2022-11-19T04:51:56.813Z,93935.16
2022-11-19T04:54:23.157Z,93939.59
2022-11-19T04:56:49.404Z,93941.03
2022-11-19T04:59:15.651Z,93946.47
2022-11-19T05:01:41.948Z,93942.03
2022-11-19T05:04:08.233Z,93945.72
2022-11-19T05:06:34.546Z,93949.97
2022-11-19T05:09:00.782Z,93954.91
2022-11-19T05:11:27.037Z,93953.72
2022-11-19T05:13:53.274Z,93955.81
2022-11-19T05:16:19.556Z,93961.25
2022-11-19T05:18:45.801Z,93965.66
2022-11-19T05:21:12.054Z,93963.88
2022-11-19T05:23:38.295Z,93967.91
2022-11-19T05:26:04.525Z,93972.53
2022-11-19T05:28:38.510Z,93978.75
2022-11-19T05:31:05.553Z,93984.00
2022-11-19T05:33:34.160Z,93982.53
2022-11-19T05:36:00.884Z,93975.03
2022-11-19T05:38:27.145Z,93976.47
2022-11-19T05:40:53.396Z,93978.69
2022-11-19T05:43:19.731Z,93984.47
2022-11-19T05:45:45.961Z,93991.81
2022-11-19T05:48:12.233Z,93990.63
2022-11-19T05:50:38.502Z,93987.84
2022-11-19T05:53:04.761Z,93989.28
2022-11-19T05:55:31.037Z,93988.66
2022-11-19T05:57:57.300Z,93991.91
2022-11-19T06:00:23.573Z,93998.31
2022-11-19T06:02:49.822Z,93998.31
2022-11-19T06:05:16.092Z,93998.50
2022-11-19T06:07:42.327Z,94005.53
2022-11-19T06:10:08.565Z,94007.16
2022-11-19T06:12:34.956Z,94006.00
2022-11-19T06:15:01.194Z,94007.06
2022-11-19T06:17:27.418Z,94006.69
2022-11-19T06:19:53.693Z,94015.09
2022-11-19T06:22:19.937Z,94007.13
2022-11-19T06:24:46.202Z,94013.53
2022-11-19T06:27:12.450Z,94020.59
2022-11-19T06:29:38.684Z,94009.94
2022-11-19T06:32:04.913Z,94012.38
2022-11-19T06:34:31.153Z,94019.16
2022-11-19T06:36:57.404Z,94021.59
2022-11-19T06:39:23.751Z,94024.63
2022-11-19T06:41:50.068Z,94027.53
2022-11-19T06:44:16.299Z,94037.19
2022-11-19T06:46:42.528Z,94041.00
2022-11-19T06:49:08.769Z,94052.09
2022-11-19T06:51:34.998Z,94046.22
2022-11-19T06:54:01.243Z,94048.25
2022-11-19T06:56:27.473Z,94046.81
2022-11-19T06:58:53.760Z,94048.97
2022-11-19T07:01:20.084Z,94047.22
2022-11-19T07:03:46.330Z,94054.91
2022-11-19T07:06:12.578Z,94049.56
2022-11-19T07:08:38.852Z,94059.50
2022-11-19T07:11:05.096Z,94061.94
2022-11-19T07:13:31.323Z,94062.94
2022-11-19T07:15:57.654Z,94071.59
2022-11-19T07:18:23.897Z,94076.50
2022-11-19T07:20:50.125Z,94068.47
2022-11-19T07:23:16.377Z,94067.00
2022-11-19T07:25:42.621Z,94083.19
2022-11-19T07:28:08.874Z,94078.41
2022-11-19T07:30:35.135Z,94074.78
2022-11-19T07:33:01.373Z,94084.63
2022-11-19T07:35:27.615Z,94084.81
2022-11-19T07:37:53.845Z,94084.38
2022-11-19T07:40:20.079Z,94084.88
2022-11-19T07:42:46.312Z,94082.31
2022-11-19T07:45:12.551Z,94083.94
2022-11-19T07:47:38.779Z,94091.16
2022-11-19T07:50:05.009Z,94091.47
2022-11-19T07:52:31.260Z,94089.47
2022-11-19T07:54:57.500Z,94097.53
2022-11-19T07:57:29.870Z,94093.41
2022-11-19T07:59:56.578Z,94100.22
2022-11-19T08:02:22.829Z,94103.66
2022-11-19T08:04:49.165Z,94101.22
2022-11-19T08:07:15.476Z,94107.50
2022-11-19T08:09:41.725Z,94096.91
2022-11-19T08:12:07.954Z,94103.72
2022-11-19T08:14:34.182Z,94097.97
2022-11-19T08:17:00.428Z,94105.66
2022-11-19T08:19:26.656Z,94103.38
2022-11-19T08:21:52.893Z,94107.41
2022-11-19T08:24:19.535Z,94107.88
2022-11-19T08:26:46.321Z,94115.56
2022-11-19T08:29:16.294Z,94114.75
2022-11-19T08:31:43.003Z,94112.94
2022-11-19T08:34:09.241Z,94102.88
2022-11-19T08:36:35.482Z,94105.91
2022-11-19T08:39:01.726Z,94096.16
2022-11-19T08:41:28.085Z,94099.53
2022-11-19T08:43:54.309Z,94096.66
2022-11-19T08:46:20.559Z,94095.94
2022-11-19T08:48:46.808Z,94091.13
2022-11-19T08:51:13.046Z,94105.06
2022-11-19T08:53:39.278Z,94099.09
2022-11-19T08:56:05.529Z,94099.41
2022-11-19T08:58:31.762Z,94096.94
2022-11-19T09:00:58.058Z,94098.84
2022-11-19T09:03:24.445Z,94102.84
2022-11-19T09:05:50.693Z,94095.03
2022-11-19T09:08:16.928Z,94099.56
2022-11-19T09:10:43.156Z,94102.69
2022-11-19T09:13:09.405Z,94102.25
2022-11-19T09:15:35.655Z,94103.41
2022-11-19T09:18:01.917Z,94107.22
2022-11-19T09:20:28.148Z,94105.59
2022-11-19T09:22:54.381Z,94110.28
2022-11-19T09:25:20.670Z,94110.28
2022-11-19T09:27:46.923Z,94104.78
2022-11-19T09:30:13.189Z,94097.66
2022-11-19T09:32:39.446Z,94106.25
2022-11-19T09:35:05.705Z,94104.97
2022-11-19T09:37:31.960Z,94096.41
2022-11-19T09:39:58.212Z,94097.50
2022-11-19T09:42:24.470Z,94098.94
2022-11-19T09:44:50.713Z,94097.94
2022-11-19T09:47:16.945Z,94104.19
2022-11-19T09:49:43.193Z,94103.81
2022-11-19T09:52:09.421Z,94106.53
2022-11-19T09:54:35.664Z,94104.91
2022-11-19T09:57:04.397Z,94109.44
2022-11-19T09:59:30.906Z,94105.91
2022-11-19T10:01:57.154Z,94102.91
2022-11-19T10:04:23.398Z,94102.44
2022-11-19T10:06:49.628Z,94105.34
2022-11-19T10:09:15.859Z,94102.63
2022-11-19T10:11:42.090Z,94103.91
2022-11-19T10:14:08.349Z,94101.16
2022-11-19T10:16:34.604Z,94098.53
2022-11-19T10:19:00.899Z,94101.28
2022-11-19T10:21:27.246Z,94096.75
2022-11-19T10:23:53.478Z,94094.75
2022-11-19T10:26:19.701Z,94095.19
2022-11-19T10:28:45.925Z,94091.50
2022-11-19T10:31:12.175Z,94086.69
2022-11-19T10:33:38.407Z,94086.38
2022-11-19T10:36:04.739Z,94090.56
2022-11-19T10:38:30.964Z,94087.38
2022-11-19T10:40:57.187Z,94092.44
2022-11-19T10:43:23.784Z,94096.97
2022-11-19T10:45:50.111Z,94098.66
2022-11-19T10:48:16.350Z,94092.59
2022-11-19T10:50:42.600Z,94088.31
2022-11-19T10:53:08.834Z,94088.63
2022-11-19T10:55:35.079Z,94084.88
2022-11-19T10:58:01.345Z,94086.13
2022-11-19T11:00:27.596Z,94090.31
2022-11-19T11:02:53.833Z,94089.78
2022-11-19T11:05:20.179Z,94085.78
2022-11-19T11:07:50.077Z,94082.69
2022-11-19T11:10:17.046Z,94086.78
2022-11-19T11:12:43.294Z,94080.44
2022-11-19T11:15:09.550Z,94068.88
2022-11-19T11:17:35.780Z,94077.34
2022-11-19T11:20:02.039Z,94082.16
2022-11-19T11:22:28.305Z,94079.22
2022-11-19T11:24:54.546Z,94083.84
2022-11-19T11:27:20.796Z,94078.91
2022-11-19T11:29:47.063Z,94083.47
2022-11-19T11:32:13.289Z,94077.16
2022-11-19T11:34:42.204Z,94078.47
2022-11-19T11:37:09.865Z,94080.84
2022-11-19T11:39:36.113Z,94079.09
2022-11-19T11:42:06.945Z,94075.66
2022-11-19T11:44:33.541Z,94074.47
2022-11-19T11:46:59.790Z,94069.53
2022-11-19T11:49:26.222Z,94070.47
2022-11-19T11:51:52.599Z,94071.50
2022-11-19T11:54:18.858Z,94070.03
2022-11-19T11:56:45.101Z,94068.28
2022-11-19T11:59:11.353Z,94066.94
2022-11-19T12:01:37.588Z,94066.84
2022-11-19T12:04:03.822Z,94065.44
2022-11-19T12:06:30.054Z,94064.38
2022-11-19T12:08:56.290Z,94052.47
2022-11-19T12:11:22.536Z,94061.47
2022-11-19T12:13:48.790Z,94057.13
2022-11-19T12:16:15.021Z,94046.84
2022-11-19T12:18:41.268Z,94047.31
2022-11-19T12:21:11.503Z,94040.94
2022-11-19T12:23:38.296Z,94039.47
2022-11-19T12:26:04.538Z,94043.16
2022-11-19T12:28:30.776Z,94048.38
2022-11-19T12:30:57.030Z,94056.28
2022-11-19T12:33:23.280Z,94056.72
2022-11-19T12:35:49.527Z,94054.25
2022-11-19T12:38:15.753Z,94047.31
2022-11-19T12:40:42.354Z,94057.38
2022-11-19T12:43:08.787Z,94060.81
2022-11-19T12:45:35.038Z,94063.59
2022-11-19T12:48:01.281Z,94056.88
2022-11-19T12:50:27.562Z,94055.69
2022-11-19T12:52:53.818Z,94053.88
2022-11-19T12:55:20.064Z,94060.97
2022-11-19T12:57:46.321Z,94060.63
2022-11-19T13:00:12.556Z,94059.19
2022-11-19T13:02:38.813Z,94063.81
2022-11-19T13:05:05.058Z,94054.09
2022-11-19T13:07:31.373Z,94062.63
2022-11-19T13:09:57.663Z,94056.31
2022-11-19T13:12:23.903Z,94052.31
2022-11-19T13:14:54.670Z,94060.63
2022-11-19T13:17:21.406Z,94053.72
2022-11-19T13:19:47.651Z,94057.59
2022-11-19T13:22:13.887Z,94056.41
2022-11-19T13:24:40.132Z,94047.34
2022-11-19T13:27:06.393Z,94050.16
2022-11-19T13:29:32.653Z,94055.09
2022-11-19T13:31:58.903Z,94055.75
2022-11-19T13:34:25.139Z,94053.16
2022-11-19T13:36:51.384Z,94060.88
2022-11-19T13:39:17.993Z,94048.13
2022-11-19T13:41:44.553Z,94056.66
2022-11-19T13:44:10.787Z,94055.19
2022-11-19T13:46:37.034Z,94056.59
2022-11-19T13:49:03.288Z,94054.97
2022-11-19T13:51:29.525Z,94057.03
2022-11-19T13:53:59.816Z,94051.97
2022-11-19T13:56:29.067Z,94060.72
2022-11-19T13:58:55.304Z,94054.63
2022-11-19T14:01:21.590Z,94061.06
2022-11-19T14:03:47.908Z,94056.97
2022-11-19T14:06:14.160Z,94058.38
2022-11-19T14:08:40.391Z,94067.25
2022-11-19T14:11:06.641Z,94063.16
2022-11-19T14:13:32.891Z,94067.28
2022-11-19T14:15:59.127Z,94078.81
2022-11-19T14:18:25.372Z,94080.91
2022-11-19T14:20:51.637Z,94073.56
2022-11-19T14:23:17.894Z,94078.00
2022-11-19T14:25:44.141Z,94079.03
2022-11-19T14:28:10.393Z,94076.75
2022-11-19T14:30:36.671Z,94084.09
2022-11-19T14:33:02.906Z,94085.25
2022-11-19T14:35:29.151Z,94078.16
2022-11-19T14:37:55.496Z,94072.50
2022-11-19T14:40:21.744Z,94070.53
2022-11-19T14:42:47.990Z,94074.38
2022-11-19T14:45:14.237Z,94082.22
2022-11-19T14:47:40.478Z,94082.41
2022-11-19T14:50:06.726Z,94082.00
2022-11-19T14:52:32.993Z,94083.28
2022-11-19T14:54:59.235Z,94074.38
2022-11-19T14:57:25.486Z,94084.47
2022-11-19T14:59:51.718Z,94076.44
2022-11-19T15:02:17.955Z,94087.38
2022-11-19T15:04:44.181Z,94087.78
2022-11-19T15:07:10.473Z,94081.88
2022-11-19T15:09:36.726Z,94085.09
2022-11-19T15:12:02.985Z,94087.66
2022-11-19T15:14:29.232Z,94085.84
2022-11-19T15:16:55.467Z,94093.59
2022-11-19T15:19:22.084Z,94089.19
2022-11-19T15:21:48.690Z,94094.00
2022-11-19T15:24:14.918Z,94095.75
2022-11-19T15:26:42.245Z,94097.56
2022-11-19T15:29:08.485Z,94099.34
2022-11-19T15:31:34.732Z,94100.56
2022-11-19T15:34:00.987Z,94095.09
2022-11-19T15:36:27.238Z,94103.34
2022-11-19T15:38:53.489Z,94098.47
2022-11-19T15:41:19.734Z,94109.44
2022-11-19T15:43:46.149Z,94106.56
2022-11-19T15:46:12.384Z,94111.41
2022-11-19T15:48:38.622Z,94111.19
2022-11-19T15:51:04.874Z,94113.63
2022-11-19T15:53:31.133Z,94122.31
2022-11-19T15:55:57.374Z,94119.84
2022-11-19T15:58:23.628Z,94116.94
2022-11-19T16:00:49.976Z,94119.97
2022-11-19T16:03:16.205Z,94121.78
2022-11-19T16:05:46.335Z,94125.56
2022-11-19T16:08:15.310Z,94127.00
2022-11-19T16:10:41.539Z,94129.53
2022-11-19T16:13:07.888Z,94131.47
2022-11-19T16:15:34.518Z,94128.41
2022-11-19T16:18:00.749Z,94131.47
2022-11-19T16:20:26.998Z,94140.38
2022-11-19T16:22:53.275Z,94126.09
2022-11-19T16:25:19.507Z,94138.63
2022-11-19T16:27:45.767Z,94140.81
2022-11-19T16:30:12.027Z,94145.81
2022-11-19T16:32:38.274Z,94146.41
2022-11-19T16:35:04.501Z,94147.00
2022-11-19T16:37:30.737Z,94142.75
2022-11-19T16:39:56.987Z,94150.53
2022-11-19T16:42:23.227Z,94152.59
2022-11-19T16:44:49.453Z,94155.41
2022-11-19T16:47:15.776Z,94166.13
2022-11-19T16:49:42.062Z,94164.91
2022-11-19T16:52:08.312Z,94161.66
2022-11-19T16:54:34.834Z,94164.31
2022-11-19T16:57:01.080Z,94169.00
2022-11-19T16:59:27.336Z,94168.56
2022-11-19T17:01:53.619Z,94172.72
2022-11-19T17:04:20.141Z,94172.56
2022-11-19T17:06:46.737Z,94174.38
2022-11-19T17:09:12.970Z,94178.06
2022-11-19T17:11:39.207Z,94178.28
2022-11-19T17:14:05.465Z,94184.91
2022-11-19T17:16:31.701Z,94182.09
2022-11-19T17:18:57.970Z,94189.78
2022-11-19T17:21:24.207Z,94179.75
2022-11-19T17:23:50.450Z,94190.06
2022-11-19T17:26:16.683Z,94187.34
2022-11-19T17:28:42.934Z,94198.94
2022-11-19T17:31:09.177Z,94201.13
2022-11-19T17:33:36.734Z,94203.25
2022-11-19T17:36:03.194Z,94208.50
2022-11-19T17:38:29.436Z,94208.34
2022-11-19T17:40:55.693Z,94207.06
2022-11-19T17:43:21.945Z,94208.06
2022-11-19T17:45:48.177Z,94217.91
2022-11-19T17:48:14.434Z,94220.28
2022-11-19T17:50:40.666Z,94218.84
2022-11-19T17:53:06.929Z,94224.59
2022-11-19T17:55:33.177Z,94226.06
2022-11-19T17:57:59.410Z,94222.16
2022-11-19T18:00:25.641Z,94227.94
2022-11-19T18:02:51.895Z,94230.03
2022-11-19T18:05:18.150Z,94228.69
2022-11-19T18:07:44.401Z,94231.47
2022-11-19T18:10:10.749Z,94239.00
2022-11-19T18:12:36.986Z,94234.66
2022-11-19T18:15:03.213Z,94232.03
2022-11-19T18:17:29.445Z,94240.25
2022-11-19T18:19:55.736Z,94241.44
2022-11-19T18:22:22.072Z,94248.50
2022-11-19T18:24:48.302Z,94245.56
2022-11-19T18:27:14.550Z,94243.41
2022-11-19T18:29:40.808Z,94250.28
2022-11-19T18:32:07.049Z,94249.13
2022-11-19T18:34:33.344Z,94251.88
2022-11-19T18:36:59.609Z,94252.41
2022-11-19T18:39:25.841Z,94258.56
2022-11-19T18:41:52.098Z,94253.13
2022-11-19T18:44:18.463Z,94259.19
2022-11-19T18:46:44.725Z,94257.94
2022-11-19T18:49:11.093Z,94265.09
2022-11-19T18:51:37.325Z,94263.94
2022-11-19T18:54:03.556Z,94268.97
2022-11-19T18:56:29.810Z,94261.50
2022-11-19T18:58:59.198Z,94269.59
2022-11-19T19:01:29.606Z,94270.78
2022-11-19T19:03:55.916Z,94267.03
2022-11-19T19:06:22.165Z,94268.97
2022-11-19T19:08:48.420Z,94265.41
2022-11-19T19:11:14.669Z,94270.03
2022-11-19T19:13:40.895Z,94273.97
2022-11-19T19:16:07.132Z,94267.59
2022-11-19T19:18:33.395Z,94271.53
2022-11-19T19:20:59.622Z,94278.44
2022-11-19T19:23:25.897Z,94278.94
2022-11-19T19:25:52.193Z,94277.63
2022-11-19T19:28:18.449Z,94285.31
2022-11-19T19:30:44.702Z,94283.63
2022-11-19T19:33:10.945Z,94284.69
2022-11-19T19:35:37.206Z,94279.84
2022-11-19T19:38:03.541Z,94288.56
2022-11-19T19:40:29.781Z,94285.03
2022-11-19T19:42:56.005Z,94280.66
2022-11-19T19:45:22.260Z,94285.59
2022-11-19T19:47:48.508Z,94289.19
2022-11-19T19:50:14.752Z,94288.72
2022-11-19T19:52:40.989Z,94278.91
2022-11-19T19:55:07.239Z,94279.94
2022-11-19T19:57:33.479Z,94282.75
2022-11-19T19:59:59.732Z,94288.34
2022-11-19T20:02:25.981Z,94294.25
2022-11-19T20:04:52.257Z,94291.66
2022-11-19T20:07:18.520Z,94287.59
2022-11-19T20:09:44.802Z,94288.75
2022-11-19T20:12:11.064Z,94285.84
2022-11-19T20:14:37.317Z,94286.84
2022-11-19T20:17:03.567Z,94287.50
2022-11-19T20:19:29.832Z,94292.41
2022-11-19T20:21:56.080Z,94285.72
2022-11-19T20:24:22.329Z,94290.94
2022-11-19T20:26:48.581Z,94301.41
2022-11-19T20:29:14.860Z,94304.03
2022-11-19T20:31:41.103Z,94305.19
2022-11-19T20:34:07.368Z,94298.31
2022-11-19T20:36:33.624Z,94300.44
2022-11-19T20:38:59.883Z,94306.66
2022-11-19T20:41:26.133Z,94310.25
2022-11-19T20:43:52.974Z,94311.59
2022-11-19T20:46:19.274Z,94313.34
2022-11-19T20:48:45.519Z,94310.44
2022-11-19T20:51:11.759Z,94317.94
2022-11-19T20:53:37.986Z,94315.00
2022-11-19T20:56:05.440Z,94317.63
2022-11-19T20:58:31.864Z,94321.06
2022-11-19T21:00:58.106Z,94327.94
2022-11-19T21:03:24.354Z,94321.53
2022-11-19T21:05:50.589Z,94328.91
2022-11-19T21:08:16.814Z,94328.22
2022-11-19T21:10:43.042Z,94331.53
2022-11-19T21:13:09.311Z,94324.81
2022-11-19T21:15:35.551Z,94326.94
2022-11-19T21:18:01.801Z,94333.63
2022-11-19T21:20:28.060Z,94333.47
2022-11-19T21:22:54.315Z,94336.88
2022-11-19T21:25:20.570Z,94335.94
2022-11-19T21:27:46.806Z,94335.25
2022-11-19T21:30:13.056Z,94334.13
2022-11-19T21:32:39.309Z,94331.66
2022-11-19T21:35:05.555Z,94333.13
2022-11-19T21:37:31.787Z,94340.66
2022-11-19T21:39:58.005Z,94344.25
2022-11-19T21:42:24.232Z,94340.34
2022-11-19T21:44:50.479Z,94336.75
2022-11-19T21:47:16.716Z,94338.38
2022-11-19T21:49:42.939Z,94339.84
2022-11-19T21:52:09.162Z,94344.91
2022-11-19T21:54:35.412Z,94340.34
2022-11-19T21:57:01.633Z,94337.72
2022-11-19T21:59:27.862Z,94332.00
2022-11-19T22:01:55.036Z,94334.94
2022-11-19T22:04:21.334Z,94328.91
2022-11-19T22:06:47.557Z,94329.38
2022-11-19T22:09:13.785Z,94329.56
2022-11-19T22:11:40.019Z,94333.31
2022-11-19T22:14:06.248Z,94332.34
2022-11-19T22:16:32.491Z,94332.97
2022-11-19T22:18:58.740Z,94340.34
2022-11-19T22:21:24.974Z,94334.94
2022-11-19T22:23:51.206Z,94335.59
2022-11-19T22:26:17.453Z,94334.78
2022-11-19T22:28:43.700Z,94339.19
2022-11-19T22:31:09.958Z,94338.38
2022-11-19T22:33:36.231Z,94339.84
2022-11-19T22:36:08.023Z,94334.13
2022-11-19T22:38:35.924Z,94329.22
2022-11-19T22:41:02.168Z,94333.47
2022-11-19T22:43:28.402Z,94332.00
2022-11-19T22:45:54.648Z,94333.00
2022-11-19T22:48:20.917Z,94338.03
2022-11-19T22:50:47.174Z,94331.50
2022-11-19T22:53:13.406Z,94341.78
2022-11-19T22:55:39.665Z,94333.59
2022-11-19T22:58:05.897Z,94340.47
2022-11-19T23:00:32.164Z,94339.97
2022-11-19T23:02:58.479Z,94339.16
2022-11-19T23:05:24.735Z,94335.88
2022-11-19T23:07:50.966Z,94336.97
2022-11-19T23:10:17.218Z,94350.69
2022-11-19T23:12:43.468Z,94350.38
2022-11-19T23:15:09.709Z,94353.31
2022-11-19T23:17:35.942Z,94357.66
2022-11-19T23:20:04.833Z,94346.09
2022-11-19T23:22:31.334Z,94358.81
2022-11-19T23:24:57.586Z,94363.53
2022-11-19T23:27:23.842Z,94355.34
2022-11-19T23:29:50.077Z,94358.13
2022-11-19T23:32:16.451Z,94352.53
2022-11-19T23:34:42.710Z,94354.13
2022-11-19T23:37:08.939Z,94355.28
2022-11-19T23:39:35.210Z,94352.50
2022-11-19T23:42:01.489Z,94362.47
2022-11-19T23:44:27.716Z,94354.59
2022-11-19T23:46:53.969Z,94354.75
2022-11-19T23:49:20.482Z,94360.59
2022-11-19T23:51:46.905Z,94362.38
2022-11-19T23:54:13.165Z,94364.34
2022-11-19T23:56:39.425Z,94369.16
2022-11-19T23:59:05.679Z,94375.34
